Coastal Nomad — WDC6439 — position and weather

sailwx.info

Track history (hours):
 
Tides and Currents Weather Stations Pressure Air Temp Water Temp Dewpoint Dewpoint Depression Visibility Wind Speed Wind Dir Waves Ship Positions

Coastal Nomad

Owner: Coastal Transportation, Inc., Seattle, WA. More information available from US FCC via Universal Licensing System and Coast Guard Vessel Documentation Center.

Last reported at 2018-Jun-19 11:48 UTC. Time now 2018-Jun-19 14:30 UTC.
Position N 53°13' W 130°39'.

Length 74 m; draft 2 m.

Type: Cargo ship. MMSI: 303683000.

Date/timePositionNaut miles runAvg speedWind from/ knotsBaromVisibWave heightAir tempDewpointWater temp
2018-Jun-19 11:48N 53°13' W 130°39'610.4
2018-Jun-19 11:13N 53°18' W 130°44'510.7
2018-Jun-19 10:47N 53°22' W 130°48'310.7
2018-Jun-19 10:30N 53°25' W 130°50'510.4
2018-Jun-19 10:00N 53°30' W 130°55'510.2
2018-Jun-19 09:28N 53°34' W 130°59'510.6
2018-Jun-19 09:00N 53°39' W 131°02'510.6
2018-Jun-19 08:30N 53°44' W 131°05'510.9
2018-Jun-19 08:00N 53°49' W 131°08'611.1
2018-Jun-19 07:30N 53°54' W 131°12'511.0
2018-Jun-19 07:00N 53°59' W 131°15'510.8
2018-Jun-19 06:30N 54°04' W 131°19'510.5
2018-Jun-19 06:00N 54°09' W 131°23'5 9.9
2018-Jun-19 05:31N 54°14' W 131°26'5 9.5
2018-Jun-19 05:00N 54°17' W 131°32'611.3
2018-Jun-19 04:30N 54°19' W 131°41'611.6
2018-Jun-19 04:00N 54°21' W 131°50'611.3
2018-Jun-19 03:30N 54°24' W 131°59'510.9
2018-Jun-19 03:00N 54°26' W 132°08'510.9
2018-Jun-19 02:30N 54°28' W 132°16'611.0
2018-Jun-19 02:00N 54°30' W 132°25'317 9.9
2018-Jun-17 18:00N 57°54' W 139°42'26110.9 140 / 151028.0 1.1 8.9
2018-Jun-16 18:00N 57°54' W 147°54'235 9.8 160 / 151014.9 1.1 8.3
2018-Jun-15 18:00N 57°00' W 155°00'   140 / 271009.1 1.1 8.9
Track history (hours):
 
Tides and Currents Weather Stations Pressure Air Temp Water Temp Dewpoint Dewpoint Depression Visibility Wind Speed Wind Dir Waves Ship Positions

Coastal Nomad

Owner: Coastal Transportation, Inc., Seattle, WA. More information available from US FCC via Universal Licensing System and Coast Guard Vessel Documentation Center.

Last reported at 2018-Jun-19 11:48 UTC. Time now 2018-Jun-19 14:30 UTC.
Position N 53°13' W 130°39'.

Length 74 m; draft 2 m.

Type: Cargo ship. MMSI: 303683000.

Date/timePositionNaut miles runAvg speedWind from/ knotsBaromVisibWave heightAir tempDewpointWater temp
2018-Jun-19 11:48N 53°13' W 130°39'610.4
2018-Jun-19 11:13N 53°18' W 130°44'510.7
2018-Jun-19 10:47N 53°22' W 130°48'310.7
2018-Jun-19 10:30N 53°25' W 130°50'510.4
2018-Jun-19 10:00N 53°30' W 130°55'510.2
2018-Jun-19 09:28N 53°34' W 130°59'510.6
2018-Jun-19 09:00N 53°39' W 131°02'510.6
2018-Jun-19 08:30N 53°44' W 131°05'510.9
2018-Jun-19 08:00N 53°49' W 131°08'611.1
2018-Jun-19 07:30N 53°54' W 131°12'511.0
2018-Jun-19 07:00N 53°59' W 131°15'510.8
2018-Jun-19 06:30N 54°04' W 131°19'510.5
2018-Jun-19 06:00N 54°09' W 131°23'5 9.9
2018-Jun-19 05:31N 54°14' W 131°26'5 9.5
2018-Jun-19 05:00N 54°17' W 131°32'611.3
2018-Jun-19 04:30N 54°19' W 131°41'611.6
2018-Jun-19 04:00N 54°21' W 131°50'611.3
2018-Jun-19 03:30N 54°24' W 131°59'510.9
2018-Jun-19 03:00N 54°26' W 132°08'510.9
2018-Jun-19 02:30N 54°28' W 132°16'611.0
2018-Jun-19 02:00N 54°30' W 132°25'317 9.9
2018-Jun-17 18:00N 57°54' W 139°42'26110.9 140 / 151028.0 1.1 8.9
2018-Jun-16 18:00N 57°54' W 147°54'235 9.8 160 / 151014.9 1.1 8.3
2018-Jun-15 18:00N 57°00' W 155°00'   140 / 271009.1 1.1 8.9

Dump ship's entire track history